Time;durP1;ratioP1;P1;durP2;ratioP2;P2;SDS_P1;SDS_P2;PMS_P1;PMS_P2;Temp;Humidity;BMP_temperature;BMP_pressure;BME280_temperature;BME280_humidity;BME280_pressure;Samples;Min_cycle;Max_cycle;Signal;HPM_P1;HPM_P2
2022/05/26 00:02:12;;;;;;;30.85;7.80;;;;;;;;;;5053950;28;20090;-70
2022/05/26 00:04:38;;;;;;;33.70;8.57;;;14.40;99.90;;;;;;5054094;28;20044;-70
2022/05/26 00:07:04;;;;;;;37.00;9.65;;;14.50;99.90;;;;;;5037177;28;20047;-70
2022/05/26 00:09:29;;;;;;;41.28;9.52;;;14.60;99.90;;;;;;5053111;28;20595;-70
2022/05/26 00:11:55;;;;;;;38.55;8.43;;;14.40;99.90;;;;;;5053796;28;20540;-70
2022/05/26 00:14:20;;;;;;;36.25;7.43;;;14.40;99.90;;;;;;5053576;28;20544;-70
2022/05/26 00:16:47;;;;;;;38.60;8.18;;;14.50;99.90;;;;;;5071434;28;20522;-70
2022/05/26 00:19:15;;;;;;;40.90;7.88;;;14.30;99.90;;;;;;5052947;28;20215;-70
2022/05/26 00:21:41;;;;;;;28.85;8.00;;;;;;;;;;5053590;28;20449;-71
2022/05/26 00:24:08;;;;;;;36.40;7.78;;;14.50;99.90;;;;;;5053815;28;20040;-68
2022/05/26 00:26:33;;;;;;;32.67;9.05;;;14.30;99.90;;;;;;5073984;28;20037;-69
2022/05/26 00:28:59;;;;;;;33.78;7.53;;;;;;;;;;5057026;28;20165;-70
2022/05/26 00:31:25;;;;;;;31.60;8.20;;;14.30;99.90;;;;;;5057347;28;20036;-68
2022/05/26 00:33:51;;;;;;;39.60;7.50;;;14.30;99.90;;;;;;5057516;28;20043;-68
2022/05/26 00:36:37;;;;;;;34.22;7.75;;;14.40;99.90;;;;;;5041881;28;20036;-69
2022/05/26 00:39:06;;;;;;;38.70;8.52;;;14.30;99.90;;;;;;5075217;28;20041;-68
2022/05/26 00:41:32;;;;;;;35.00;6.93;;;14.40;99.90;;;;;;5057381;28;20398;-69
2022/05/26 00:43:58;;;;;;;33.92;7.95;;;14.30;99.90;;;;;;5057470;28;20048;-69
2022/05/26 00:46:42;;;;;;;31.85;7.30;;;14.40;99.90;;;;;;5057678;28;20127;-68
2022/05/26 00:49:16;;;;;;;38.92;8.00;;;14.20;99.90;;;;;;5074874;28;20054;-68
2022/05/26 00:51:42;;;;;;;30.13;7.40;;;14.30;99.90;;;;;;5057391;28;20075;-68
2022/05/26 00:54:13;;;;;;;31.25;7.60;;;14.20;99.90;;;;;;5075388;28;20043;-68
2022/05/26 00:56:51;;;;;;;33.20;7.68;;;14.20;99.90;;;;;;5075013;28;20394;-70
2022/05/26 00:59:23;;;;;;;40.13;8.07;;;14.30;99.90;;;;;;5074344;28;20181;-69
2022/05/26 01:01:49;;;;;;;39.43;7.90;;;;;;;;;;5057469;28;20403;-68
2022/05/26 01:04:22;;;;;;;31.20;7.28;;;14.30;99.90;;;;;;5074985;28;20290;-68
2022/05/26 01:07:05;;;;;;;30.90;7.88;;;14.20;99.90;;;;;;5056917;28;20040;-68
2022/05/26 01:09:30;;;;;;;41.03;7.63;;;14.30;99.90;;;;;;5039799;28;20448;-68
2022/05/26 01:11:56;;;;;;;34.47;8.13;;;14.20;99.90;;;;;;5040311;28;20175;-68
2022/05/26 01:14:27;;;;;;;39.53;8.70;;;14.30;99.90;;;;;;5075085;28;20036;-70
2022/05/26 01:17:03;;;;;;;31.92;7.88;;;14.40;99.90;;;;;;5074736;28;20076;-69
2022/05/26 01:19:45;;;;;;;37.10;8.15;;;14.30;99.90;;;;;;5056432;28;20044;-68
2022/05/26 01:22:32;;;;;;;34.50;7.65;;;14.20;99.90;;;;;;5040232;28;20047;-68
2022/05/26 01:25:21;;;;;;;41.30;8.35;;;14.20;99.90;;;;;;5056931;28;20040;-68
2022/05/26 01:28:10;;;;;;;41.05;8.88;;;14.30;99.90;;;;;;5074649;28;20448;-69
2022/05/26 01:30:53;;;;;;;31.63;8.27;;;14.10;99.90;;;;;;5074101;28;20037;-69
2022/05/26 01:34:00;;;;;;;37.10;8.25;;;14.20;99.90;;;;;;5074753;28;20375;-69
2022/05/26 01:36:55;;;;;;;39.42;8.23;;;14.30;99.90;;;;;;5039861;28;20039;-68
2022/05/26 01:40:02;;;;;;;31.25;8.02;;;14.30;99.90;;;;;;5055323;28;20493;-68
2022/05/26 01:42:54;;;;;;;30.73;7.07;;;14.20;99.90;;;;;;5039691;28;20526;-69
2022/05/26 01:45:38;;;;;;;26.83;7.13;;;14.10;99.90;;;;;;5002233;28;20049;-70
2022/05/26 01:48:42;;;;;;;38.97;7.07;;;14.10;99.90;;;;;;5056427;28;20040;-68
2022/05/26 01:51:12;;;;;;;28.17;7.10;;;14.30;99.90;;;;;;5055317;28;20044;-68
2022/05/26 01:54:01;;;;;;;23.92;5.82;;;14.30;99.90;;;;;;5039749;28;20347;-69
2022/05/26 01:56:52;;;;;;;27.98;6.70;;;14.20;99.90;;;;;;5074085;28;20090;-68
2022/05/26 01:59:47;;;;;;;31.65;7.47;;;14.20;99.90;;;;;;5073576;28;20605;-68
2022/05/26 02:02:29;;;;;;;36.85;6.88;;;14.20;99.90;;;;;;5055919;28;20044;-68
2022/05/26 02:05:05;;;;;;;33.33;6.60;;;14.10;99.90;;;;;;5055889;28;20445;-69
2022/05/26 02:07:31;;;;;;;32.13;7.22;;;;;;;;;;5055902;28;20044;-70
2022/05/26 02:10:00;;;;;;;23.58;6.82;;;14.20;99.90;;;;;;5054882;28;20082;-68
2022/05/26 02:12:39;;;;;;;26.70;6.50;;;14.30;99.90;;;;;;5055743;28;20044;-69
2022/05/26 02:15:11;;;;;;;25.00;6.38;;;14.10;99.90;;;;;;5055994;28;20041;-69
2022/05/26 02:17:43;;;;;;;27.20;7.57;;;14.10;99.90;;;;;;5073742;28;20207;-69
2022/05/26 02:20:15;;;;;;;31.77;6.30;;;14.10;99.90;;;;;;5054787;28;20048;-72
2022/05/26 02:23:02;;;;;;;28.08;6.78;;;14.10;99.90;;;;;;5055610;28;20566;-69
2022/05/26 02:25:29;;;;;;;36.70;6.70;;;14.20;99.90;;;;;;5055760;28;20524;-69
2022/05/26 02:27:57;;;;;;;17.25;4.57;;;14.10;99.90;;;;;;5055430;28;20040;-69
2022/05/26 02:30:28;;;;;;;25.38;5.90;;;13.80;99.90;;;;;;5054668;28;20045;-69
2022/05/26 02:32:54;;;;;;;23.13;5.70;;;14.10;99.90;;;;;;5038768;28;20521;-71
2022/05/26 02:35:31;;;;;;;21.60;5.43;;;13.90;99.90;;;;;;5073335;28;20051;-72
2022/05/26 02:38:01;;;;;;;16.60;4.43;;;14.10;99.90;;;;;;5055370;28;20041;-69
2022/05/26 02:40:28;;;;;;;16.58;4.15;;;14.00;99.90;;;;;;5054464;28;20050;-69
2022/05/26 02:43:10;;;;;;;20.27;4.68;;;13.90;99.90;;;;;;5055245;28;20051;-69
2022/05/26 02:45:42;;;;;;;13.18;3.55;;;14.00;99.90;;;;;;5073204;28;20048;-69
2022/05/26 02:48:19;;;;;;;20.30;3.38;;;14.00;99.90;;;;;;5055017;28;20040;-69
2022/05/26 02:51:03;;;;;;;12.60;3.05;;;13.90;99.90;;;;;;5072008;28;20474;-69
2022/05/26 02:53:42;;;;;;;15.35;3.55;;;14.00;99.90;;;;;;5054870;28;20127;-69
2022/05/26 02:56:46;;;;;;;14.48;2.35;;;14.00;99.90;;;;;;5054804;28;20568;-70
2022/05/26 02:59:49;;;;;;;12.80;2.85;;;13.90;99.90;;;;;;5072035;28;20121;-69
2022/05/26 03:02:23;;;;;;;10.23;2.50;;;13.80;99.90;;;;;;5072948;28;20059;-69
2022/05/26 03:04:55;;;;;;;17.20;2.70;;;13.90;99.90;;;;;;5054642;28;20047;-69
2022/05/26 03:07:27;;;;;;;11.38;2.92;;;14.00;99.90;;;;;;5073119;28;20040;-69
2022/05/26 03:09:53;;;;;;;11.45;2.30;;;13.70;99.90;;;;;;5053871;28;20066;-69
2022/05/26 03:12:35;;;;;;;10.45;2.35;;;13.80;99.90;;;;;;5054588;28;20124;-69
2022/05/26 03:15:02;;;;;;;11.63;1.92;;;13.70;99.90;;;;;;5072708;28;20040;-69
2022/05/26 03:17:28;;;;;;;10.60;2.45;;;13.50;99.90;;;;;;5037749;28;20120;-69
2022/05/26 03:19:53;;;;;;;12.27;3.20;;;13.60;99.90;;;;;;5053682;28;20123;-68
2022/05/26 03:22:19;;;;;;;7.05;2.25;;;;;;;;;;5054397;28;20045;-69
2022/05/26 03:24:45;;;;;;;11.45;2.38;;;;;;;;;;5072074;28;20048;-69
2022/05/26 03:27:12;;;;;;;10.57;2.03;;;13.60;99.90;;;;;;5054489;28;20406;-70
2022/05/26 03:29:37;;;;;;;7.90;1.80;;;13.60;99.90;;;;;;5053416;28;20032;-69
2022/05/26 03:32:03;;;;;;;16.42;2.90;;;;;;;;;;5072245;28;20086;-73
2022/05/26 03:42:44;;;;;;;13.05;2.30;;;13.40;99.90;;;;;;5054064;28;20118;-69
2022/05/26 03:45:12;;;;;;;10.73;2.50;;;13.50;99.90;;;;;;5054262;28;20178;-70
2022/05/26 03:47:39;;;;;;;11.55;2.67;;;13.50;99.90;;;;;;5071514;28;20044;-69
2022/05/26 03:50:05;;;;;;;9.63;1.83;;;13.30;99.90;;;;;;5053124;28;20046;-70
2022/05/26 03:52:31;;;;;;;8.65;1.92;;;13.40;99.90;;;;;;5037232;28;20086;-69
2022/05/26 03:54:57;;;;;;;7.55;2.25;;;;;;;;;;5071959;28;20044;-69
2022/05/26 03:57:24;;;;;;;6.50;1.95;;;13.50;99.90;;;;;;5053924;28;20042;-71
2022/05/26 03:59:49;;;;;;;10.18;1.90;;;13.60;99.90;;;;;;5071061;28;20443;-69
2022/05/26 04:02:15;;;;;;;10.50;2.47;;;;;;;;;;5071129;28;20115;-69
2022/05/26 04:04:42;;;;;;;6.47;2.03;;;;;;;;;;5054029;28;20044;-69
2022/05/26 04:07:07;;;;;;;11.48;2.63;;;13.50;99.90;;;;;;5053845;28;20044;-69
2022/05/26 04:09:33;;;;;;;7.30;2.03;;;13.50;99.90;;;;;;5053057;28;20562;-69
2022/05/26 04:11:58;;;;;;;9.60;2.05;;;13.40;99.90;;;;;;5037145;28;20087;-69
2022/05/26 04:14:24;;;;;;;5.95;1.73;;;13.50;99.90;;;;;;5071724;28;20067;-69
2022/05/26 04:16:49;;;;;;;10.48;2.10;;;13.30;99.90;;;;;;5071326;28;20036;-71
2022/05/26 04:19:15;;;;;;;10.57;2.08;;;13.30;99.90;;;;;;5071054;28;20049;-68
2022/05/26 04:22:15;;;;;;;6.25;1.48;;;;;;;;;;5053865;28;20044;-69
2022/05/26 04:24:27;;;;;;;8.88;1.63;;;13.40;99.90;;;;;;5071849;28;20044;-69
2022/05/26 04:26:52;;;;;;;7.57;1.60;;;;;;;;;;5053504;28;20039;-69
2022/05/26 04:29:23;;;;;;;7.03;1.42;;;13.40;99.90;;;;;;5052651;28;20055;-71
2022/05/26 04:31:49;;;;;;;9.63;2.03;;;;;;;;;;5053438;28;20086;-70
2022/05/26 04:34:15;;;;;;;6.47;1.40;;;13.30;99.90;;;;;;5053704;28;20044;-69
2022/05/26 04:36:41;;;;;;;8.85;1.85;;;13.60;99.90;;;;;;5036626;28;20043;-71
2022/05/26 04:39:07;;;;;;;6.28;1.48;;;;;;;;;;5070823;28;20246;-70
2022/05/26 04:41:33;;;;;;;10.25;2.22;;;;;;;;;;5053598;28;20410;-69
2022/05/26 04:43:58;;;;;;;6.40;1.45;;;13.60;99.90;;;;;;5053357;28;20043;-69
2022/05/26 04:46:24;;;;;;;6.45;1.75;;;13.50;99.90;;;;;;5053777;28;20551;-69
2022/05/26 04:48:50;;;;;;;7.63;1.42;;;;;;;;;;5053538;28;20037;-70
2022/05/26 04:51:15;;;;;;;8.13;1.58;;;13.50;99.90;;;;;;5052377;28;20490;-71
2022/05/26 04:53:41;;;;;;;12.23;1.70;;;13.70;99.90;;;;;;5053674;28;20585;-69
2022/05/26 04:56:06;;;;;;;7.97;1.55;;;13.70;99.90;;;;;;5053524;28;20502;-69
2022/05/26 04:58:32;;;;;;;5.45;1.27;;;;;;;;;;5053138;28;20052;-70
2022/05/26 05:00:58;;;;;;;11.23;2.55;;;;;;;;;;5052745;28;20040;-69
2022/05/26 05:03:24;;;;;;;8.30;1.40;;;13.90;99.90;;;;;;5053265;28;20494;-67
2022/05/26 05:05:50;;;;;;;5.75;1.35;;;;;;;;;;5071182;28;20063;-68
2022/05/26 05:08:15;;;;;;;6.90;1.63;;;14.00;99.90;;;;;;5044302;28;20037;-69
2022/05/26 05:10:41;;;;;;;5.63;1.45;;;14.00;99.90;;;;;;5032006;28;20102;-68
2022/05/26 05:13:09;;;;;;;7.60;1.50;;;14.00;99.90;;;;;;5052229;28;20041;-70
2022/05/26 05:15:45;;;;;;;6.82;1.88;;;14.10;99.90;;;;;;5036890;28;20048;-69
2022/05/26 05:18:10;;;;;;;11.27;1.92;;;14.00;99.90;;;;;;5054711;28;20095;-68
2022/05/26 05:20:38;;;;;;;18.38;1.60;;;14.20;99.90;;;;;;5053905;28;20445;-68
2022/05/26 05:23:08;;;;;;;8.50;2.17;;;14.20;99.90;;;;;;5054735;28;20131;-68
2022/05/26 05:25:49;;;;;;;8.18;1.48;;;14.30;99.90;;;;;;5020745;28;20045;-70
2022/05/26 05:28:23;;;;;;;6.10;1.80;;;14.10;99.90;;;;;;5033240;28;20044;-69
2022/05/26 05:30:57;;;;;;;3.92;1.13;;;14.30;99.90;;;;;;5057091;28;20055;-69
2022/05/26 05:33:31;;;;;;;5.70;1.17;;;14.50;99.90;;;;;;5040955;28;20033;-72
2022/05/26 05:36:09;;;;;;;9.18;1.50;;;14.20;99.90;;;;;;5035813;28;20043;-70
2022/05/26 05:38:38;;;;;;;5.63;1.08;;;14.70;99.90;;;;;;5033719;28;20045;-70
2022/05/26 05:41:05;;;;;;;10.18;1.30;;;14.60;99.90;;;;;;5029821;28;20448;-70
2022/05/26 05:43:32;;;;;;;8.23;1.38;;;14.80;99.90;;;;;;5045547;28;20113;-70
2022/05/26 05:45:58;;;;;;;8.23;1.58;;;14.70;99.90;;;;;;5040507;28;20048;-70
2022/05/26 05:48:24;;;;;;;5.85;1.20;;;14.70;99.90;;;;;;5036077;28;20036;-70
2022/05/26 05:50:50;;;;;;;4.22;1.13;;;14.70;99.90;;;;;;5035189;28;20510;-70
2022/05/26 05:53:16;;;;;;;7.90;1.35;;;14.80;99.90;;;;;;5035854;28;20040;-69
2022/05/26 05:55:42;;;;;;;3.38;1.33;;;14.90;99.90;;;;;;5052419;28;20049;-70
2022/05/26 05:58:09;;;;;;;7.88;1.30;;;;;;;;;;5042996;28;20037;-70
2022/05/26 06:00:36;;;;;;;5.30;1.17;;;14.90;99.90;;;;;;5062987;28;20098;-69
2022/05/26 06:03:03;;;;;;;5.25;1.08;;;15.20;99.90;;;;;;5035879;28;20077;-69
2022/05/26 06:05:28;;;;;;;6.25;1.17;;;15.20;99.90;;;;;;5036210;28;20041;-70
2022/05/26 06:07:54;;;;;;;7.53;1.52;;;;;;;;;;5035494;28;20048;-75
2022/05/26 06:10:20;;;;;;;4.05;1.02;;;;;;;;;;5052203;28;20080;-70
2022/05/26 06:12:46;;;;;;;8.77;2.03;;;;;;;;;;5034464;28;20123;-71
2022/05/26 06:15:12;;;;;;;9.00;1.35;;;;;;;;;;5034398;28;20050;-71
2022/05/26 06:17:39;;;;;;;6.13;1.30;;;;;;;;;;5032609;28;20041;-71
2022/05/26 06:20:06;;;;;;;9.40;1.30;;;15.30;99.90;;;;;;5051727;28;20040;-71
2022/05/26 06:22:35;;;;;;;5.25;1.10;;;15.30;99.90;;;;;;5034581;28;20090;-70
2022/05/26 06:25:02;;;;;;;7.25;1.35;;;15.40;99.90;;;;;;5034113;28;20091;-70
2022/05/26 06:30:14;;;;;;;3.22;1.10;;;15.40;99.90;;;;;;5052696;28;20048;-70
2022/05/26 06:38:18;;;;;;;10.18;1.52;;;15.40;99.90;;;;;;5094617;22;20135;-74
2022/05/26 06:40:44;;;;;;;6.78;1.25;;;15.50;99.90;;;;;;5072842;28;20037;-74
2022/05/26 06:43:10;;;;;;;7.85;1.27;;;15.50;99.90;;;;;;5055443;28;20032;-75
2022/05/26 06:45:36;;;;;;;3.60;0.90;;;15.30;99.90;;;;;;5055096;28;20044;-75
2022/05/26 06:48:03;;;;;;;3.00;1.17;;;15.60;99.90;;;;;;5073226;28;20083;-75
2022/05/26 06:50:29;;;;;;;8.55;1.50;;;15.50;99.90;;;;;;5038150;28;20174;-75
2022/05/26 06:52:55;;;;;;;7.25;1.10;;;;;;;;;;5055205;28;20086;-75
2022/05/26 06:55:20;;;;;;;7.15;1.63;;;15.30;99.90;;;;;;5072933;28;20036;-75
2022/05/26 06:57:46;;;;;;;4.70;1.30;;;;;;;;;;5038293;28;20410;-75
2022/05/26 07:00:15;;;;;;;3.53;1.02;;;15.40;99.90;;;;;;5054292;28;20070;-75
2022/05/26 07:02:41;;;;;;;6.63;1.90;;;15.50;99.90;;;;;;5055341;28;20163;-75
2022/05/26 07:05:08;;;;;;;6.93;1.58;;;;;;;;;;5054964;28;20068;-75
2022/05/26 07:07:35;;;;;;;9.48;1.48;;;15.50;99.90;;;;;;5055133;28;20055;-75
2022/05/26 07:10:02;;;;;;;6.13;1.30;;;15.50;99.90;;;;;;5071869;28;20528;-75
2022/05/26 07:12:27;;;;;;;9.27;1.92;;;15.60;99.90;;;;;;5037967;28;20032;-75
2022/05/26 07:14:54;;;;;;;8.93;1.65;;;15.60;99.90;;;;;;5054774;28;20516;-75
2022/05/26 07:17:20;;;;;;;8.20;1.27;;;15.70;99.90;;;;;;5053626;28;20058;-75
2022/05/26 07:19:46;;;;;;;8.27;1.30;;;15.70;99.90;;;;;;5071999;28;20038;-75
2022/05/26 07:22:13;;;;;;;5.00;1.02;;;16.00;99.90;;;;;;5054856;28;20032;-75
2022/05/26 07:24:40;;;;;;;9.30;1.10;;;15.90;99.90;;;;;;5072602;28;20100;-74
2022/05/26 07:27:06;;;;;;;5.05;1.10;;;15.70;99.90;;;;;;5054415;28;20127;-75
2022/05/26 07:29:33;;;;;;;6.10;1.75;;;15.90;99.90;;;;;;5071712;28;20064;-75
2022/05/26 07:31:59;;;;;;;5.30;1.10;;;15.70;99.90;;;;;;5054662;28;20040;-75
2022/05/26 07:34:25;;;;;;;6.25;1.13;;;15.90;99.90;;;;;;5038144;28;20037;-74
2022/05/26 07:42:23;;;;;;;8.07;1.75;;;15.80;99.90;;;;;;5054242;28;20120;-75
2022/05/26 07:44:52;;;;;;;6.88;1.40;;;15.80;99.90;;;;;;5054287;28;20041;-74
2022/05/26 07:47:17;;;;;;;5.95;1.73;;;15.90;99.90;;;;;;5054122;28;20437;-74
2022/05/26 07:49:47;;;;;;;8.25;1.45;;;15.80;99.90;;;;;;5071320;28;20086;-74
2022/05/26 07:52:14;;;;;;;7.10;1.20;;;15.90;99.90;;;;;;5037552;28;20040;-75
2022/05/26 07:54:40;;;;;;;8.32;1.17;;;;;;;;;;5037707;28;20090;-75
2022/05/26 07:57:10;;;;;;;8.90;2.40;;;16.00;99.90;;;;;;5071866;28;20487;-74
2022/05/26 07:59:36;;;;;;;5.32;1.38;;;16.00;99.90;;;;;;5053222;28;20044;-75
2022/05/26 08:02:02;;;;;;;7.20;1.30;;;16.00;99.90;;;;;;5037454;28;20044;-74
2022/05/26 08:04:28;;;;;;;6.10;1.20;;;16.20;99.90;;;;;;5053908;28;20086;-74
2022/05/26 08:06:53;;;;;;;3.83;1.10;;;16.10;99.90;;;;;;5053921;28;20051;-74
2022/05/26 08:09:21;;;;;;;5.47;1.13;;;16.00;99.90;;;;;;5053177;28;20048;-75
2022/05/26 08:11:47;;;;;;;4.00;1.23;;;16.20;99.90;;;;;;5071976;28;20421;-74
2022/05/26 08:14:14;;;;;;;4.97;1.38;;;16.20;99.90;;;;;;5037227;28;20119;-74
2022/05/26 08:16:40;;;;;;;8.73;1.63;;;15.50;99.90;;;;;;5053508;28;20040;-75
2022/05/26 08:19:06;;;;;;;7.07;1.27;;;16.60;99.90;;;;;;5071169;28;20032;-75
2022/05/26 08:21:33;;;;;;;7.22;1.02;;;16.50;99.90;;;;;;5053661;28;20041;-74
2022/05/26 08:24:00;;;;;;;6.68;1.20;;;16.70;99.90;;;;;;5071815;28;20124;-74
2022/05/26 08:26:30;;;;;;;2.95;1.10;;;16.80;99.90;;;;;;5053577;28;20052;-74
2022/05/26 08:28:56;;;;;;;10.55;2.20;;;16.60;99.90;;;;;;5053343;28;20041;-75
2022/05/26 08:31:23;;;;;;;5.63;0.90;;;16.80;99.90;;;;;;5071173;28;20052;-75
2022/05/26 08:33:50;;;;;;;6.68;1.02;;;16.90;99.90;;;;;;5053679;28;20090;-74
2022/05/26 08:36:20;;;;;;;5.68;1.13;;;17.00;99.90;;;;;;5037056;28;20036;-75
2022/05/26 08:38:46;;;;;;;6.32;1.65;;;16.90;99.90;;;;;;5053755;28;20467;-74
2022/05/26 08:41:28;;;;;;;4.53;0.90;;;17.10;99.90;;;;;;5052907;28;20088;-75
2022/05/26 08:43:59;;;;;;;6.55;1.08;;;17.30;99.90;;;;;;5071428;28;20033;-74
2022/05/26 08:46:37;;;;;;;7.10;1.33;;;17.10;99.90;;;;;;5071685;28;20502;-74
2022/05/26 08:49:23;;;;;;;3.70;0.98;;;17.10;99.90;;;;;;5056898;28;20123;-74
2022/05/26 08:52:23;;;;;;;4.50;1.02;;;17.10;99.90;;;;;;5075401;28;20041;-75
2022/05/26 08:55:26;;;;;;;6.88;1.30;;;17.00;99.90;;;;;;5075275;28;20494;-75
2022/05/26 08:58:18;;;;;;;5.78;1.13;;;17.00;99.90;;;;;;5036675;28;20051;-74
2022/05/26 09:00:50;;;;;;;8.65;1.08;;;16.80;99.90;;;;;;5074709;28;20037;-75
2022/05/26 09:03:26;;;;;;;3.08;0.85;;;16.70;99.90;;;;;;5040565;28;20041;-74
2022/05/26 09:06:12;;;;;;;6.40;1.05;;;16.90;99.90;;;;;;5058124;28;20036;-74
2022/05/26 09:14:30;;;;;;;5.07;0.95;;;17.40;99.90;;;;;;5056976;28;20055;-74
2022/05/26 09:17:03;;;;;;;3.72;0.90;;;17.30;99.90;;;;;;5055793;28;20418;-74
2022/05/26 09:19:49;;;;;;;11.95;0.82;;;17.30;99.90;;;;;;5074431;28;20087;-74
2022/05/26 09:22:41;;;;;;;4.28;0.65;;;17.10;99.90;;;;;;5074954;28;20068;-74
2022/05/26 09:25:13;;;;;;;2.08;0.65;;;17.50;99.90;;;;;;5074601;28;20089;-74
2022/05/26 09:27:49;;;;;;;5.15;1.38;;;17.70;99.90;;;;;;5074839;28;20091;-74
2022/05/26 09:30:14;;;;;;;4.65;0.90;;;18.10;99.90;;;;;;5073902;28;20047;-74
2022/05/26 09:32:40;;;;;;;3.83;0.77;;;18.20;99.90;;;;;;5056916;28;20398;-74
2022/05/26 09:35:11;;;;;;;1.85;0.60;;;18.00;99.90;;;;;;5074582;28;20032;-74
2022/05/26 09:37:43;;;;;;;2.13;0.73;;;17.90;99.90;;;;;;5074255;28;20095;-75
2022/05/26 09:40:36;;;;;;;4.60;0.95;;;18.20;99.90;;;;;;5023224;28;20402;-75
2022/05/26 09:43:06;;;;;;;3.78;0.85;;;18.20;99.90;;;;;;5074504;28;20071;-74
2022/05/26 09:45:48;;;;;;;7.03;1.00;;;18.40;99.90;;;;;;5056454;28;20115;-75
2022/05/26 09:48:37;;;;;;;3.25;0.98;;;18.60;99.90;;;;;;5056273;28;20140;-75
2022/05/26 09:51:25;;;;;;;6.13;1.10;;;18.10;99.90;;;;;;5073248;28;20076;-75
2022/05/26 09:53:53;;;;;;;10.50;1.48;;;18.00;99.90;;;;;;5056307;28;20566;-74
2022/05/26 09:56:32;;;;;;;2.70;0.73;;;18.30;99.90;;;;;;5056296;28;20048;-74
2022/05/26 09:58:58;;;;;;;3.65;0.82;;;18.70;99.90;;;;;;5054861;28;20041;-74
2022/05/26 10:01:27;;;;;;;7.82;1.05;;;18.80;99.90;;;;;;5073982;28;20048;-74
2022/05/26 10:03:58;;;;;;;6.70;1.45;;;18.60;99.90;;;;;;5039587;28;20037;-74
2022/05/26 10:06:37;;;;;;;8.55;1.30;;;18.20;99.90;;;;;;5055866;28;20044;-75
2022/05/26 10:09:24;;;;;;;5.53;0.98;;;18.10;99.90;;;;;;5055421;28;20524;-75
2022/05/26 10:12:25;;;;;;;3.88;0.93;;;18.10;99.90;;;;;;5055916;28;20056;-74
2022/05/26 10:15:08;;;;;;;3.78;1.10;;;18.20;99.90;;;;;;5055934;28;20040;-74
2022/05/26 10:18:04;;;;;;;5.65;1.35;;;18.40;99.90;;;;;;5054907;28;20079;-74
2022/05/26 10:20:53;;;;;;;7.28;1.10;;;18.10;99.90;;;;;;5055212;28;20081;-75
2022/05/26 10:23:48;;;;;;;3.83;0.88;;;18.10;99.90;;;;;;5073937;28;20043;-74
2022/05/26 10:26:40;;;;;;;3.20;1.25;;;18.10;99.90;;;;;;5073766;28;20041;-75
2022/05/26 10:29:18;;;;;;;8.25;1.13;;;18.00;99.90;;;;;;5054909;28;20040;-76
2022/05/26 10:32:26;;;;;;;7.00;2.13;;;18.10;99.90;;;;;;5073783;28;20076;-75
2022/05/26 10:35:22;;;;;;;7.32;1.20;;;18.20;99.90;;;;;;5055755;28;20036;-74
2022/05/26 10:38:10;;;;;;;5.65;1.17;;;18.20;99.90;;;;;;5055280;28;20037;-75
2022/05/26 10:41:03;;;;;;;5.50;1.48;;;18.60;99.90;;;;;;5054730;28;20049;-75
2022/05/26 10:43:47;;;;;;;5.15;1.02;;;18.50;99.90;;;;;;5073361;28;20040;-75
2022/05/26 10:46:14;;;;;;;9.43;1.48;;;18.30;99.90;;;;;;5073167;28;20042;-75
2022/05/26 10:48:47;;;;;;;6.45;1.30;;;18.30;99.90;;;;;;5055393;28;20044;-74
2022/05/26 10:51:25;;;;;;;5.82;1.23;;;19.00;99.90;;;;;;5054568;28;20049;-75
2022/05/26 10:53:57;;;;;;;6.20;1.30;;;18.50;99.90;;;;;;5055236;28;20040;-75
2022/05/26 10:56:31;;;;;;;5.25;1.50;;;18.20;99.90;;;;;;5038333;28;20090;-75
2022/05/26 10:59:25;;;;;;;8.30;1.60;;;18.50;99.90;;;;;;5054901;28;20040;-75
2022/05/26 11:01:56;;;;;;;5.35;1.20;;;18.50;99.90;;;;;;5068763;28;20052;-75
2022/05/26 11:04:46;;;;;;;6.13;1.48;;;18.10;99.90;;;;;;5055143;28;20098;-75
2022/05/26 11:07:21;;;;;;;3.83;1.58;;;18.00;99.90;;;;;;5072651;28;20076;-75
2022/05/26 11:09:50;;;;;;;4.07;1.10;;;19.20;99.90;;;;;;5053702;28;20049;-74
2022/05/26 11:12:38;;;;;;;6.63;1.15;;;18.60;99.90;;;;;;5054655;28;20083;-75
2022/05/26 11:18:26;;;;;;;3.22;0.88;;;18.80;99.90;;;;;;5052951;28;20097;-74
2022/05/26 11:20:54;;;;;;;5.00;1.20;;;19.70;99.90;;;;;;5054092;28;20075;-74
2022/05/26 11:23:25;;;;;;;4.75;1.33;;;18.40;99.90;;;;;;5054776;28;20122;-74
2022/05/26 11:26:24;;;;;;;6.60;2.20;;;18.70;99.90;;;;;;5054992;28;20048;-74
2022/05/26 11:28:56;;;;;;;7.70;1.55;;;20.90;99.90;;;;;;5072217;28;20048;-75
2022/05/26 11:37:28;;;;;;;9.32;2.20;;;19.70;99.90;;;;;;5054069;28;20071;-74
2022/05/26 11:40:05;;;;;;;5.90;1.30;;;19.80;99.90;;;;;;5053619;28;20045;-75
2022/05/26 11:42:46;;;;;;;5.93;1.70;;;19.30;99.90;;;;;;5054382;28;20520;-74
2022/05/26 11:45:21;;;;;;;5.18;1.65;;;19.00;99.90;;;;;;5037993;28;20044;-74
2022/05/26 11:47:54;;;;;;;8.73;1.50;;;19.00;99.90;;;;;;5054189;28;20041;-74
2022/05/26 11:50:32;;;;;;;6.63;1.65;;;19.20;99.90;;;;;;5053267;28;20049;-75
2022/05/26 11:53:03;;;;;;;8.18;1.80;;;18.50;99.90;;;;;;5054329;28;20037;-74
2022/05/26 11:55:50;;;;;;;6.40;1.85;;;18.50;99.90;;;;;;5054111;28;20048;-74
2022/05/26 11:58:29;;;;;;;4.20;1.77;;;19.20;99.90;;;;;;5037290;28;20082;-74
2022/05/26 12:01:13;;;;;;;6.72;1.50;;;19.20;99.90;;;;;;5071316;28;20049;-74
2022/05/26 12:03:48;;;;;;;7.03;1.50;;;19.20;99.90;;;;;;5072090;28;20052;-74
2022/05/26 12:06:16;;;;;;;5.22;1.25;;;19.30;99.90;;;;;;5053827;28;20403;-74
2022/05/26 12:09:00;;;;;;;9.60;1.88;;;20.20;99.90;;;;;;5053945;28;20500;-75
2022/05/26 12:11:58;;;;;;;7.50;1.98;;;19.10;99.90;;;;;;5053665;28;20422;-74
2022/05/26 12:14:28;;;;;;;6.82;1.48;;;19.40;99.90;;;;;;5045677;28;20049;-74
2022/05/26 12:17:29;;;;;;;6.75;1.17;;;19.10;99.90;;;;;;5053433;28;20664;-74
2022/05/26 12:20:15;;;;;;;4.90;1.83;;;19.00;99.90;;;;;;5071133;28;20110;-74
2022/05/26 12:22:47;;;;;;;6.82;1.73;;;18.80;99.90;;;;;;5035887;28;20047;-74
2022/05/26 12:25:33;;;;;;;6.45;1.40;;;19.70;99.90;;;;;;5054280;28;20044;-74
2022/05/26 12:28:01;;;;;;;5.30;1.40;;;18.70;99.90;;;;;;5053633;28;20127;-74
2022/05/26 12:30:40;;;;;;;4.07;1.00;;;18.70;99.90;;;;;;5070946;28;20079;-74
2022/05/26 12:33:19;;;;;;;4.25;1.27;;;18.70;99.90;;;;;;5071723;28;20570;-74
2022/05/26 12:36:14;;;;;;;6.68;1.02;;;19.50;99.90;;;;;;5036945;28;20453;-74
2022/05/26 12:39:08;;;;;;;6.93;1.40;;;18.80;99.90;;;;;;5060939;22;20481;-69
2022/05/26 12:42:16;;;;;;;9.60;1.70;;;19.00;99.90;;;;;;5071703;28;20040;-71
2022/05/26 12:44:56;;;;;;;7.57;1.50;;;19.00;99.90;;;;;;5045858;28;20052;-71
2022/05/26 12:47:28;;;;;;;6.07;1.67;;;18.80;99.90;;;;;;5053537;28;20232;-71
2022/05/26 12:50:17;;;;;;;4.75;1.50;;;19.10;99.90;;;;;;5036063;28;20037;-71
2022/05/26 12:52:44;;;;;;;4.78;1.10;;;19.20;99.90;;;;;;5053351;28;20063;-71
2022/05/26 12:55:25;;;;;;;5.07;1.10;;;18.90;99.90;;;;;;5053403;28;20047;-71
2022/05/26 12:58:02;;;;;;;5.97;1.63;;;19.30;99.90;;;;;;5071235;28;20514;-71
2022/05/26 13:00:38;;;;;;;9.15;1.20;;;18.60;99.90;;;;;;5052868;28;20085;-72
2022/05/26 13:03:20;;;;;;;7.97;1.40;;;18.50;99.90;;;;;;5071345;28;20127;-73
2022/05/26 13:05:52;;;;;;;6.45;1.67;;;18.80;99.90;;;;;;5053422;28;20448;-71
2022/05/26 13:08:23;;;;;;;7.15;1.15;;;18.90;99.90;;;;;;5036519;28;20067;-71
2022/05/26 13:10:52;;;;;;;12.05;3.30;;;18.60;99.90;;;;;;5052422;28;20044;-73
2022/05/26 13:13:23;;;;;;;5.28;1.63;;;18.50;99.90;;;;;;5071320;28;20033;-71
2022/05/26 13:15:49;;;;;;;7.95;1.85;;;18.30;99.90;;;;;;5071224;28;20037;-73
2022/05/26 13:18:25;;;;;;;8.70;1.88;;;18.80;99.90;;;;;;5069188;28;20029;-71
2022/05/26 13:20:51;;;;;;;8.70;2.75;;;18.70;99.90;;;;;;5052393;28;20083;-69
2022/05/26 13:23:27;;;;;;;3.78;1.20;;;18.70;99.90;;;;;;5071468;28;20068;-69
2022/05/26 13:25:54;;;;;;;5.25;1.30;;;18.80;99.90;;;;;;5053306;28;20115;-69
2022/05/26 13:28:27;;;;;;;5.28;1.40;;;18.70;99.90;;;;;;5052980;28;20051;-70
2022/05/26 13:33:43;;;;;;;8.30;1.52;;;18.40;99.90;;;;;;5071441;28;20490;-70
2022/05/26 13:36:35;;;;;;;9.73;1.85;;;19.10;99.90;;;;;;5056531;28;20418;-70
2022/05/26 13:39:06;;;;;;;4.60;1.30;;;18.90;99.90;;;;;;5055501;28;20048;-69
2022/05/26 13:41:32;;;;;;;9.50;1.75;;;18.80;99.90;;;;;;5074365;28;20040;-69
2022/05/26 13:44:03;;;;;;;7.20;1.75;;;18.70;99.90;;;;;;5039685;28;20115;-69
2022/05/26 13:46:37;;;;;;;9.88;2.75;;;18.50;99.90;;;;;;5074433;28;20162;-69
2022/05/26 13:49:38;;;;;;;9.00;2.53;;;18.50;99.90;;;;;;5039045;28;20055;-69
2022/05/26 13:52:19;;;;;;;7.20;2.00;;;18.70;99.90;;;;;;5059944;28;20056;-69
2022/05/26 13:54:53;;;;;;;10.95;2.10;;;18.50;99.90;;;;;;5074196;28;20444;-69
2022/05/26 13:57:26;;;;;;;12.85;2.50;;;19.00;99.90;;;;;;5056423;28;20033;-69
2022/05/26 13:59:56;;;;;;;7.03;1.90;;;18.00;99.90;;;;;;5038970;28;20048;-69
2022/05/26 14:02:30;;;;;;;9.75;1.88;;;18.00;99.90;;;;;;5074041;28;20392;-70
2022/05/26 14:05:14;;;;;;;6.82;1.90;;;18.30;99.90;;;;;;5056112;28;20406;-71
2022/05/26 14:07:42;;;;;;;6.55;2.17;;;18.10;99.90;;;;;;5056057;28;20414;-69